createdAt,value
2024-01-05T00:02:15.026Z,1.87
2024-01-05T00:04:42.995Z,1.50
2024-01-05T00:07:12.237Z,1.80
2024-01-05T00:09:40.299Z,2.20
2024-01-05T00:12:09.101Z,1.90
2024-01-05T00:14:39.065Z,2.23
2024-01-05T00:17:08.916Z,2.90
2024-01-05T00:19:37.163Z,2.97
2024-01-05T00:22:05.620Z,2.60
2024-01-05T00:24:33.722Z,1.60
2024-01-05T00:27:01.777Z,1.90
2024-01-05T00:29:30.385Z,2.23
2024-01-05T00:31:59.493Z,1.90
2024-01-05T00:34:28.910Z,2.20
2024-01-05T00:36:57.022Z,2.20
2024-01-05T00:39:25.061Z,1.67
2024-01-05T00:41:53.335Z,1.90
2024-01-05T00:44:21.449Z,1.80
2024-01-05T00:46:49.453Z,2.40
2024-01-05T00:49:17.895Z,1.83
2024-01-05T00:51:47.334Z,1.60
2024-01-05T00:54:15.455Z,1.80
2024-01-05T00:56:43.793Z,1.80
2024-01-05T00:59:13.704Z,2.00
2024-01-05T01:01:41.712Z,1.63
2024-01-05T01:04:09.846Z,2.30
2024-01-05T01:06:38.001Z,2.00
2024-01-05T01:09:08.560Z,2.30
2024-01-05T01:11:36.690Z,4.30
2024-01-05T01:14:05.093Z,3.10
2024-01-05T01:16:33.756Z,2.03
2024-01-05T01:19:04.873Z,2.40
2024-01-05T01:21:33.147Z,1.93
2024-01-05T01:24:01.212Z,1.90
2024-01-05T01:26:30.882Z,1.80
2024-01-05T01:28:58.917Z,1.67
2024-01-05T01:31:29.875Z,1.77
2024-01-05T01:33:58.396Z,2.17
2024-01-05T01:36:26.844Z,1.90
2024-01-05T01:38:54.909Z,1.50
2024-01-05T01:41:22.960Z,1.63
2024-01-05T01:43:53.664Z,1.63
2024-01-05T01:46:23.205Z,1.60
2024-01-05T01:48:52.202Z,2.00
2024-01-05T01:51:20.775Z,1.77
2024-01-05T01:53:48.850Z,2.00
2024-01-05T01:56:17.161Z,1.77
2024-01-05T01:58:46.017Z,1.47
2024-01-05T02:01:16.221Z,1.87
2024-01-05T02:03:45.169Z,1.70
2024-01-05T02:06:13.360Z,1.90
2024-01-05T02:08:41.609Z,1.63
2024-01-05T02:11:09.581Z,1.90
2024-01-05T02:13:37.971Z,2.27
2024-01-05T02:16:06.491Z,2.80
2024-01-05T02:18:35.968Z,1.80
2024-01-05T02:21:06.741Z,3.03
2024-01-05T02:23:36.361Z,3.50
2024-01-05T02:26:04.504Z,3.30
2024-01-05T02:28:32.564Z,2.70
2024-01-05T02:31:01.810Z,2.90
2024-01-05T02:33:31.036Z,2.60
2024-01-05T02:35:59.139Z,2.73
2024-01-05T02:38:27.168Z,2.00
2024-01-05T02:40:59.001Z,1.97
2024-01-05T02:43:27.066Z,2.27
2024-01-05T02:45:55.658Z,2.87
2024-01-05T02:48:23.862Z,1.60
2024-01-05T02:50:51.979Z,2.37
2024-01-05T02:53:20.054Z,1.47
2024-01-05T02:55:48.046Z,2.40
2024-01-05T02:58:17.424Z,2.20
2024-01-05T03:00:45.470Z,1.63
2024-01-05T03:03:13.794Z,2.00
2024-01-05T03:05:42.039Z,1.70
2024-01-05T03:08:10.140Z,2.27
2024-01-05T03:10:38.097Z,1.73
2024-01-05T03:13:06.113Z,2.40
2024-01-05T03:15:36.253Z,2.17
2024-01-05T03:18:05.146Z,1.80
2024-01-05T03:20:34.140Z,1.80
2024-01-05T03:23:02.160Z,1.60
2024-01-05T03:25:30.154Z,2.07
2024-01-05T03:27:58.178Z,1.80
2024-01-05T03:30:26.327Z,2.00
2024-01-05T03:32:55.977Z,1.57
2024-01-05T03:35:24.052Z,1.80
2024-01-05T03:37:52.546Z,1.77
2024-01-05T03:40:20.615Z,1.60
2024-01-05T03:42:48.686Z,1.97
2024-01-05T03:45:16.856Z,1.73
2024-01-05T03:47:44.937Z,1.70
2024-01-05T03:50:14.351Z,2.13
2024-01-05T03:52:42.355Z,2.00
2024-01-05T03:55:10.474Z,1.40
2024-01-05T03:57:38.453Z,2.23
2024-01-05T04:00:08.770Z,2.30
2024-01-05T04:02:36.846Z,1.70
2024-01-05T04:05:05.381Z,1.90
2024-01-05T04:07:35.730Z,1.87
2024-01-05T04:10:04.178Z,1.70
2024-01-05T04:12:32.452Z,2.30
2024-01-05T04:15:00.667Z,1.93
2024-01-05T04:17:28.824Z,2.30
2024-01-05T04:19:56.977Z,4.70
2024-01-05T04:22:25.101Z,30.07
2024-01-05T04:24:54.583Z,7.93
2024-01-05T04:27:22.634Z,11.23
2024-01-05T04:29:50.586Z,27.33
2024-01-05T04:32:19.425Z,10.70
2024-01-05T04:34:47.636Z,4.00
2024-01-05T04:37:15.750Z,3.80
2024-01-05T04:39:44.906Z,3.10
2024-01-05T04:42:14.416Z,2.90
2024-01-05T04:44:42.426Z,2.40
2024-01-05T04:47:10.505Z,1.70
2024-01-05T04:49:38.656Z,1.70
2024-01-05T04:52:07.382Z,1.87
2024-01-05T04:54:35.495Z,2.60
2024-01-05T04:57:03.694Z,10.80
2024-01-05T04:59:33.034Z,9.70
2024-01-05T05:02:01.301Z,10.43
2024-01-05T05:04:29.643Z,9.10
2024-01-05T05:06:57.669Z,12.50
2024-01-05T05:09:26.093Z,7.13
2024-01-05T05:11:54.143Z,7.93
2024-01-05T05:14:22.367Z,5.50
2024-01-05T05:16:51.747Z,2.77
2024-01-05T05:19:20.565Z,1.87
2024-01-05T05:21:49.375Z,2.37
2024-01-05T05:24:17.412Z,2.40
2024-01-05T05:26:45.398Z,1.90
2024-01-05T05:29:13.986Z,1.70
2024-01-05T05:31:42.392Z,2.70
2024-01-05T05:34:12.105Z,2.20
2024-01-05T05:36:40.311Z,2.60
2024-01-05T05:39:08.390Z,2.93
2024-01-05T05:41:36.474Z,2.20
2024-01-05T05:44:04.611Z,2.27
2024-01-05T05:46:32.658Z,2.17
2024-01-05T05:49:00.838Z,1.80
2024-01-05T05:51:30.588Z,2.00
2024-01-05T05:53:58.786Z,2.40
2024-01-05T05:56:27.414Z,2.70
2024-01-05T05:58:55.618Z,2.77
2024-01-05T06:01:25.123Z,4.57
2024-01-05T06:03:53.266Z,4.23
2024-01-05T06:06:23.521Z,3.50
2024-01-05T06:08:53.716Z,2.80
2024-01-05T06:11:22.147Z,2.83
2024-01-05T06:13:50.400Z,2.77
2024-01-05T06:16:19.135Z,1.93
2024-01-05T06:18:47.281Z,4.60
2024-01-05T06:21:15.842Z,3.30
2024-01-05T06:23:43.941Z,2.87
2024-01-05T06:26:13.313Z,3.30
2024-01-05T06:28:41.331Z,2.57
2024-01-05T06:31:10.148Z,2.73
2024-01-05T06:33:38.399Z,3.20
2024-01-05T06:36:07.859Z,2.93
2024-01-05T06:38:36.506Z,4.40
2024-01-05T06:41:04.552Z,5.10
2024-01-05T06:43:34.063Z,3.73
2024-01-05T06:46:02.334Z,6.60
2024-01-05T06:48:30.716Z,6.83
2024-01-05T06:50:58.850Z,8.70
2024-01-05T06:53:27.145Z,25.20
2024-01-05T06:55:55.267Z,68.70
2024-01-05T06:58:24.938Z,32.93
2024-01-05T07:00:54.486Z,20.97
2024-01-05T07:03:22.962Z,29.10
2024-01-05T07:05:51.542Z,24.97
2024-01-05T07:08:19.579Z,22.73
2024-01-05T07:10:47.606Z,25.07
2024-01-05T07:13:15.972Z,20.67
2024-01-05T07:15:44.132Z,61.00
2024-01-05T07:18:14.361Z,42.13
2024-01-05T07:20:42.598Z,11.47
2024-01-05T07:23:10.600Z,7.70
2024-01-05T07:25:39.071Z,5.70
2024-01-05T07:28:07.462Z,4.73
2024-01-05T07:30:35.719Z,3.07
2024-01-05T07:33:03.985Z,4.20
2024-01-05T07:35:34.847Z,3.33
2024-01-05T07:38:02.923Z,2.70
2024-01-05T07:40:31.240Z,3.20
2024-01-05T07:42:59.586Z,3.60
2024-01-05T07:45:27.744Z,4.20
2024-01-05T07:47:59.186Z,3.70
2024-01-05T07:50:28.206Z,4.30
2024-01-05T07:52:57.816Z,4.33
2024-01-05T07:55:26.222Z,7.50
2024-01-05T07:57:54.279Z,6.07
2024-01-05T08:00:22.879Z,8.47
2024-01-05T08:02:51.966Z,10.70
2024-01-05T08:05:20.345Z,15.00
2024-01-05T08:07:48.337Z,12.60
2024-01-05T08:10:17.962Z,22.07
2024-01-05T08:12:46.389Z,12.00
2024-01-05T08:15:15.135Z,5.17
2024-01-05T08:17:43.174Z,4.17
2024-01-05T08:20:12.178Z,3.43
2024-01-05T08:22:40.224Z,3.57
2024-01-05T08:25:08.793Z,3.97
2024-01-05T08:27:38.956Z,4.87
2024-01-05T08:30:09.575Z,5.10
2024-01-05T08:32:38.665Z,5.77
2024-01-05T08:35:07.603Z,5.10
2024-01-05T08:37:39.190Z,6.73
2024-01-05T08:40:09.288Z,6.50
2024-01-05T08:42:39.098Z,6.47
2024-01-05T08:45:09.128Z,7.80
2024-01-05T08:47:39.206Z,7.67
2024-01-05T08:50:09.728Z,5.93
2024-01-05T08:52:38.200Z,6.70
2024-01-05T08:55:07.039Z,6.20
2024-01-05T08:57:35.155Z,8.43
2024-01-05T09:00:05.414Z,6.93
2024-01-05T09:02:33.564Z,7.50
2024-01-05T09:05:01.824Z,8.10
2024-01-05T09:07:30.262Z,7.63
2024-01-05T09:09:58.276Z,6.50
2024-01-05T09:12:26.829Z,6.77
2024-01-05T09:14:55.995Z,6.70
2024-01-05T09:17:25.355Z,10.10
2024-01-05T09:19:53.778Z,14.53
2024-01-05T09:22:21.847Z,15.77
2024-01-05T09:24:49.844Z,14.17
2024-01-05T09:27:17.886Z,10.10
2024-01-05T09:29:45.898Z,10.03
2024-01-05T09:32:14.519Z,11.23
2024-01-05T09:34:45.366Z,21.00
2024-01-05T09:37:13.656Z,11.70
2024-01-05T09:39:42.193Z,9.63
2024-01-05T09:42:11.395Z,7.90
2024-01-05T09:44:40.734Z,8.03
2024-01-05T09:47:09.721Z,6.37
2024-01-05T09:49:38.678Z,7.30
2024-01-05T09:52:08.859Z,6.07
2024-01-05T09:54:37.606Z,5.53
2024-01-05T09:57:10.856Z,4.07
2024-01-05T09:59:40.688Z,3.93
2024-01-05T10:02:14.618Z,3.27
2024-01-05T10:04:43.318Z,3.50
2024-01-05T10:07:12.861Z,3.40
2024-01-05T10:09:52.648Z,3.23
2024-01-05T10:12:21.030Z,3.37
2024-01-05T10:14:49.412Z,3.30
2024-01-05T10:17:18.562Z,2.97
2024-01-05T10:19:47.432Z,3.80
2024-01-05T10:22:17.303Z,3.43
2024-01-05T10:24:45.400Z,3.30
2024-01-05T10:27:15.115Z,3.97
2024-01-05T10:29:46.366Z,3.30
2024-01-05T10:32:16.833Z,3.80
2024-01-05T10:34:46.269Z,3.03
2024-01-05T10:37:16.801Z,3.30
2024-01-05T10:39:48.373Z,4.13
2024-01-05T10:42:22.297Z,4.13
2024-01-05T10:44:52.531Z,3.47
2024-01-05T10:47:21.713Z,2.50
2024-01-05T10:49:51.809Z,3.13
2024-01-05T10:52:23.337Z,3.20
2024-01-05T10:54:53.558Z,3.60
2024-01-05T10:57:27.180Z,4.80
2024-01-05T10:59:55.882Z,5.10
2024-01-05T11:02:30.086Z,4.10
2024-01-05T11:05:08.324Z,4.70
2024-01-05T11:07:38.985Z,4.50
2024-01-05T11:10:21.894Z,4.10
2024-01-05T11:13:20.694Z,3.50
2024-01-05T11:16:14.779Z,3.70
2024-01-05T11:19:00.632Z,3.40
2024-01-05T11:21:44.425Z,3.77
2024-01-05T11:24:14.829Z,3.70
2024-01-05T11:26:44.166Z,3.10
2024-01-05T11:29:13.543Z,2.97
2024-01-05T11:31:57.140Z,3.03
2024-01-05T11:34:36.535Z,2.90
2024-01-05T11:37:06.540Z,2.63
2024-01-05T11:39:46.346Z,2.90
2024-01-05T11:42:30.233Z,2.27
2024-01-05T11:45:00.687Z,4.17
2024-01-05T11:47:45.782Z,3.40
2024-01-05T11:50:31.765Z,2.60
2024-01-05T11:53:14.244Z,2.37
2024-01-05T11:55:49.929Z,3.07
2024-01-05T11:58:19.691Z,4.20
2024-01-05T12:00:48.794Z,3.90
2024-01-05T12:03:18.474Z,3.60
2024-01-05T12:05:52.446Z,4.83
2024-01-05T12:08:20.756Z,7.63
2024-01-05T12:10:54.948Z,14.57
2024-01-05T12:13:26.648Z,11.87
2024-01-05T12:16:01.125Z,12.53
2024-01-05T12:18:37.604Z,5.13
2024-01-05T12:21:08.867Z,4.50
2024-01-05T12:23:39.738Z,2.93
2024-01-05T12:26:11.174Z,5.27
2024-01-05T12:28:40.575Z,4.10
2024-01-05T12:31:09.960Z,3.40
2024-01-05T12:33:40.410Z,3.00
2024-01-05T12:36:13.862Z,11.57
2024-01-05T12:38:42.566Z,5.50
2024-01-05T12:41:17.363Z,18.10
2024-01-05T12:43:50.994Z,4.10
2024-01-05T12:46:20.485Z,3.30
2024-01-05T12:48:49.695Z,6.07
2024-01-05T12:51:20.953Z,4.23
2024-01-05T12:53:59.425Z,3.93
2024-01-05T12:56:29.037Z,3.53
2024-01-05T12:58:57.165Z,11.33
2024-01-05T13:01:26.411Z,4.10
2024-01-05T13:03:55.758Z,3.77
2024-01-05T13:06:27.029Z,4.90
2024-01-05T13:08:56.604Z,3.07
2024-01-05T13:11:24.896Z,2.83
2024-01-05T13:13:54.837Z,6.00
2024-01-05T13:16:23.065Z,6.50
2024-01-05T13:18:51.181Z,7.07
2024-01-05T13:21:19.259Z,3.00
2024-01-05T13:23:50.086Z,5.53
2024-01-05T13:26:18.131Z,6.70
2024-01-05T13:28:46.424Z,17.07
2024-01-05T13:31:16.343Z,13.60
2024-01-05T13:33:44.750Z,17.40
2024-01-05T13:36:12.832Z,8.70
2024-01-05T13:38:41.071Z,16.60
2024-01-05T13:41:09.131Z,55.03
2024-01-05T13:43:37.219Z,5.93
2024-01-05T13:46:06.290Z,8.77
2024-01-05T13:48:35.827Z,23.73
2024-01-05T13:51:04.115Z,24.13
2024-01-05T13:53:32.181Z,16.33
2024-01-05T13:56:00.201Z,13.00
2024-01-05T13:58:28.238Z,5.23
2024-01-05T14:00:59.352Z,5.23
2024-01-05T14:03:29.665Z,8.40
2024-01-05T14:06:04.959Z,4.83
2024-01-05T14:08:33.581Z,4.10
2024-01-05T14:11:01.671Z,6.37
2024-01-05T14:13:29.788Z,6.73
2024-01-05T14:15:58.508Z,5.07
2024-01-05T14:18:28.143Z,7.47
2024-01-05T14:20:56.219Z,3.40
2024-01-05T14:23:25.676Z,3.90
2024-01-05T14:25:54.400Z,4.77
2024-01-05T14:28:22.469Z,3.50
2024-01-05T14:30:50.504Z,5.10
2024-01-05T14:33:18.679Z,3.10
2024-01-05T14:35:47.799Z,5.10
2024-01-05T14:38:15.941Z,6.47
2024-01-05T14:40:45.835Z,4.13
2024-01-05T14:43:13.858Z,4.13
2024-01-05T14:45:42.722Z,8.20
2024-01-05T14:48:11.047Z,9.80
2024-01-05T14:50:40.305Z,8.90
2024-01-05T14:53:11.559Z,20.03
2024-01-05T14:55:40.326Z,8.17
2024-01-05T14:58:09.702Z,5.07
2024-01-05T15:00:37.700Z,4.60
2024-01-05T15:03:06.263Z,5.43
2024-01-05T15:05:33.731Z,4.40
2024-01-05T15:08:01.784Z,4.50
2024-01-05T15:10:30.105Z,5.37
2024-01-05T15:12:58.157Z,7.70
2024-01-05T15:15:27.761Z,5.03
2024-01-05T15:17:56.743Z,12.47
2024-01-05T15:20:24.998Z,10.80
2024-01-05T15:22:53.946Z,40.70
2024-01-05T15:25:22.543Z,21.03
2024-01-05T15:27:53.790Z,52.77
2024-01-05T15:30:24.008Z,48.17
2024-01-05T15:32:53.569Z,52.13
2024-01-05T15:35:22.146Z,48.97
2024-01-05T15:37:51.452Z,56.40
2024-01-05T15:42:51.553Z,15.43
2024-01-05T15:45:19.882Z,12.00
2024-01-05T15:47:48.721Z,14.90
2024-01-05T15:50:18.239Z,12.13
2024-01-05T15:52:47.990Z,10.30
2024-01-05T15:55:19.883Z,6.03
2024-01-05T15:57:48.642Z,22.80
2024-01-05T16:00:17.829Z,11.30
2024-01-05T16:02:46.102Z,7.87
2024-01-05T16:05:14.243Z,7.63
2024-01-05T16:07:43.917Z,6.40
2024-01-05T16:10:12.761Z,4.80
2024-01-05T16:12:41.475Z,5.43
2024-01-05T16:15:14.182Z,5.57
2024-01-05T16:17:43.429Z,14.37
2024-01-05T16:20:12.729Z,7.63
2024-01-05T16:22:40.924Z,6.50
2024-01-05T16:25:10.871Z,6.87
2024-01-05T16:27:39.598Z,5.10
2024-01-05T16:30:09.638Z,6.33
2024-01-05T16:32:39.381Z,5.27
2024-01-05T16:35:08.919Z,6.30
2024-01-05T16:37:38.567Z,5.97
2024-01-05T16:40:09.365Z,6.23
2024-01-05T16:42:38.808Z,6.57
2024-01-05T16:45:07.848Z,7.20
2024-01-05T16:47:36.009Z,6.70
2024-01-05T16:50:04.228Z,8.17
2024-01-05T16:52:33.044Z,6.57
2024-01-05T16:55:01.080Z,7.90
2024-01-05T16:57:29.665Z,9.20
2024-01-05T16:59:59.416Z,8.87
2024-01-05T17:02:27.498Z,9.30
2024-01-05T17:04:55.599Z,8.33
2024-01-05T17:07:23.653Z,8.47
2024-01-05T17:09:53.759Z,8.63
2024-01-05T17:12:21.896Z,8.77
2024-01-05T17:14:50.143Z,11.00
2024-01-05T17:17:20.334Z,11.83
2024-01-05T17:19:48.602Z,11.10
2024-01-05T17:22:16.799Z,10.10
2024-01-05T17:24:44.951Z,10.03
2024-01-05T17:27:16.881Z,10.77
2024-01-05T17:29:46.880Z,10.30
2024-01-05T17:32:15.271Z,11.30
2024-01-05T17:34:46.756Z,12.13
2024-01-05T17:37:17.363Z,15.30
2024-01-05T17:39:46.781Z,25.83
2024-01-05T17:42:14.936Z,17.93
2024-01-05T17:44:45.073Z,16.10
2024-01-05T17:47:14.700Z,10.63
2024-01-05T17:49:48.076Z,12.40
2024-01-05T17:52:17.842Z,12.33
2024-01-05T17:54:46.533Z,15.20
2024-01-05T17:57:14.621Z,11.37
2024-01-05T17:59:42.716Z,11.23
2024-01-05T18:02:11.153Z,12.00
2024-01-05T18:04:39.253Z,13.40
2024-01-05T18:07:08.685Z,12.30
2024-01-05T18:09:37.776Z,13.50
2024-01-05T18:12:06.680Z,23.77
2024-01-05T18:14:37.037Z,21.23
2024-01-05T18:17:05.686Z,12.70
2024-01-05T18:19:34.282Z,13.60
2024-01-05T18:22:02.770Z,15.30
2024-01-05T18:24:32.602Z,13.80
2024-01-05T18:27:05.351Z,17.43
2024-01-05T18:29:33.386Z,17.23
2024-01-05T18:32:02.544Z,21.97
2024-01-05T18:34:31.883Z,16.60
2024-01-05T18:37:00.246Z,15.63
2024-01-05T18:39:28.456Z,13.30
2024-01-05T18:41:57.874Z,15.47
2024-01-05T18:44:26.720Z,17.83
2024-01-05T18:46:55.434Z,21.90
2024-01-05T18:49:23.988Z,25.40
2024-01-05T18:51:54.416Z,20.00
2024-01-05T18:54:23.065Z,20.13
2024-01-05T18:56:51.681Z,21.50
2024-01-05T18:59:29.050Z,18.30
2024-01-05T19:01:58.398Z,16.03
2024-01-05T19:04:26.488Z,18.87
2024-01-05T19:06:55.399Z,17.20
2024-01-05T19:09:23.521Z,13.37
2024-01-05T19:11:52.544Z,15.07
2024-01-05T19:14:25.085Z,13.47
2024-01-05T19:16:53.252Z,12.13
2024-01-05T19:19:21.587Z,12.50
2024-01-05T19:21:55.984Z,10.67
2024-01-05T19:24:26.216Z,11.37
2024-01-05T19:26:54.502Z,13.70
2024-01-05T19:29:25.018Z,12.97
2024-01-05T19:31:53.124Z,15.40
2024-01-05T19:34:21.467Z,36.30
2024-01-05T19:36:49.669Z,30.60
2024-01-05T19:39:19.276Z,24.70
2024-01-05T19:41:48.865Z,19.43
2024-01-05T19:44:18.421Z,15.33
2024-01-05T19:46:50.446Z,14.50
2024-01-05T19:49:20.690Z,14.77
2024-01-05T19:51:50.507Z,13.33
2024-01-05T19:54:20.591Z,14.40
2024-01-05T19:56:50.319Z,12.70
2024-01-05T19:59:20.433Z,14.00
2024-01-05T20:01:50.293Z,16.37
2024-01-05T20:04:19.610Z,19.67
2024-01-05T20:06:49.897Z,22.13
2024-01-05T20:09:18.253Z,15.67
2024-01-05T20:11:47.208Z,14.30
2024-01-05T20:14:15.857Z,14.27
2024-01-05T20:16:43.952Z,12.23
2024-01-05T20:19:14.341Z,13.80
2024-01-05T20:21:42.709Z,11.70
2024-01-05T20:24:11.062Z,13.10
2024-01-05T20:26:39.200Z,13.33
2024-01-05T20:29:07.390Z,12.00
2024-01-05T20:31:36.190Z,12.07
2024-01-05T20:34:05.949Z,11.60
2024-01-05T20:36:37.036Z,11.40
2024-01-05T20:39:05.884Z,12.60
2024-01-05T20:41:33.923Z,12.23
2024-01-05T20:44:01.957Z,13.20
2024-01-05T20:46:30.180Z,12.93
2024-01-05T20:48:58.663Z,14.10
2024-01-05T20:51:28.791Z,14.30
2024-01-05T20:53:58.785Z,13.43
2024-01-05T20:56:26.830Z,15.87
2024-01-05T20:58:54.861Z,17.10
2024-01-05T21:01:22.999Z,16.80
2024-01-05T21:03:51.103Z,15.23
2024-01-05T21:06:19.227Z,23.93
2024-01-05T21:08:47.264Z,26.13
2024-01-05T21:11:24.954Z,22.77
2024-01-05T21:13:53.082Z,28.73
2024-01-05T21:16:21.155Z,25.33
2024-01-05T21:18:49.238Z,20.93
2024-01-05T21:21:19.543Z,19.23
2024-01-05T21:23:47.560Z,18.17
2024-01-05T21:26:15.650Z,18.70
2024-01-05T21:28:45.037Z,15.20
2024-01-05T21:31:13.332Z,17.00
2024-01-05T21:33:43.471Z,15.60
2024-01-05T21:36:13.727Z,15.33
2024-01-05T21:38:41.813Z,14.30
2024-01-05T21:41:09.836Z,17.63
2024-01-05T21:43:37.972Z,17.43
2024-01-05T21:46:07.442Z,17.73
2024-01-05T21:48:36.396Z,16.03
2024-01-05T21:51:04.814Z,16.00
2024-01-05T21:53:33.642Z,15.53
2024-01-05T21:56:01.757Z,16.77
2024-01-05T21:58:29.819Z,14.63
2024-01-05T22:00:57.936Z,14.83
2024-01-05T22:03:27.493Z,13.33
2024-01-05T22:05:55.605Z,15.20
2024-01-05T22:08:23.640Z,15.37
2024-01-05T22:10:52.396Z,16.00
2024-01-05T22:13:21.600Z,15.60
2024-01-05T22:15:49.712Z,16.17
2024-01-05T22:18:18.118Z,15.17
2024-01-05T22:20:47.633Z,18.00
2024-01-05T22:23:15.640Z,16.70
2024-01-05T22:25:43.674Z,17.70
2024-01-05T22:28:11.726Z,17.97
2024-01-05T22:30:39.801Z,18.80
2024-01-05T22:33:08.161Z,19.40
2024-01-05T22:35:37.413Z,19.37
2024-01-05T22:38:07.018Z,19.50
2024-01-05T22:40:35.116Z,17.80
2024-01-05T22:43:04.190Z,19.60
2024-01-05T22:45:32.232Z,18.10
2024-01-05T22:48:00.357Z,16.87
2024-01-05T22:50:29.935Z,18.60
2024-01-05T22:52:57.987Z,18.80
2024-01-05T22:55:27.401Z,18.40
2024-01-05T22:57:56.167Z,19.37
2024-01-05T23:00:34.320Z,18.57
2024-01-05T23:03:06.476Z,18.77
2024-01-05T23:05:34.802Z,20.60
2024-01-05T23:08:04.327Z,17.93
2024-01-05T23:10:35.564Z,21.40
2024-01-05T23:13:04.278Z,17.27
2024-01-05T23:15:32.909Z,17.73
2024-01-05T23:18:01.504Z,19.43
2024-01-05T23:20:31.471Z,20.83
2024-01-05T23:23:00.188Z,20.17
2024-01-05T23:25:28.303Z,18.03
2024-01-05T23:27:57.690Z,20.10
2024-01-05T23:30:25.851Z,20.77
2024-01-05T23:32:53.975Z,19.63
2024-01-05T23:35:22.096Z,19.30
2024-01-05T23:37:49.242Z,18.93
2024-01-05T23:40:17.404Z,18.43
2024-01-05T23:42:45.598Z,19.10
2024-01-05T23:45:15.835Z,17.37
2024-01-05T23:47:43.896Z,21.10
2024-01-05T23:50:12.080Z,19.70
2024-01-05T23:52:40.612Z,18.00
2024-01-05T23:55:09.137Z,17.10
2024-01-05T23:57:37.151Z,16.90
